createdAt,value
2023-03-02T00:01:45.927Z,99.90
2023-03-02T00:04:17.529Z,99.90
2023-03-02T00:06:44.387Z,99.90
2023-03-02T00:09:11.254Z,99.90
2023-03-02T00:11:39.058Z,99.90
2023-03-02T00:14:07.128Z,99.90
2023-03-02T00:16:34.716Z,99.90
2023-03-02T00:19:01.517Z,99.90
2023-03-02T00:21:28.184Z,99.90
2023-03-02T00:23:54.845Z,99.90
2023-03-02T00:26:21.525Z,99.90
2023-03-02T00:28:48.281Z,99.90
2023-03-02T00:31:15.337Z,99.90
2023-03-02T00:33:42.540Z,99.90
2023-03-02T00:36:17.802Z,99.90
2023-03-02T00:38:44.955Z,99.90
2023-03-02T00:41:13.060Z,99.90
2023-03-02T00:43:40.521Z,99.90
2023-03-02T00:46:12.948Z,99.90
2023-03-02T00:48:39.741Z,99.90
2023-03-02T00:51:07.453Z,99.90
2023-03-02T00:53:35.830Z,99.90
2023-03-02T00:56:03.726Z,99.90
2023-03-02T00:58:31.016Z,99.90
2023-03-02T01:00:58.129Z,99.90
2023-03-02T01:03:25.114Z,99.90
2023-03-02T01:05:56.270Z,99.90
2023-03-02T01:08:23.554Z,99.90
2023-03-02T01:10:50.225Z,99.90
2023-03-02T01:13:17.117Z,99.90
2023-03-02T01:15:43.843Z,99.90
2023-03-02T01:18:12.113Z,99.90
2023-03-02T01:20:39.043Z,99.90
2023-03-02T01:23:06.938Z,99.90
2023-03-02T01:25:33.684Z,99.90
2023-03-02T01:28:00.317Z,99.90
2023-03-02T01:30:27.024Z,99.90
2023-03-02T01:32:53.670Z,99.90
2023-03-02T01:35:20.426Z,99.90
2023-03-02T01:37:47.328Z,99.90
2023-03-02T01:40:14.541Z,99.90
2023-03-02T01:42:50.770Z,99.90
2023-03-02T01:45:39.259Z,99.90
2023-03-02T01:48:06.076Z,99.90
2023-03-02T01:50:32.800Z,99.90
2023-03-02T01:52:59.440Z,99.90
2023-03-02T01:55:31.407Z,99.90
2023-03-02T01:58:01.026Z,99.90
2023-03-02T02:00:32.168Z,99.90
2023-03-02T02:03:09.113Z,99.90
2023-03-02T02:05:42.821Z,99.90
2023-03-02T02:08:09.807Z,99.90
2023-03-02T02:10:37.276Z,99.90
2023-03-02T02:13:04.186Z,99.90
2023-03-02T02:15:31.209Z,99.90
2023-03-02T02:17:57.848Z,99.90
2023-03-02T02:20:33.999Z,99.90
2023-03-02T02:23:29.450Z,99.90
2023-03-02T02:25:56.085Z,99.90
2023-03-02T02:28:33.304Z,99.90
2023-03-02T02:31:38.382Z,99.90
2023-03-02T02:34:22.520Z,99.90
2023-03-02T02:36:53.984Z,99.90
2023-03-02T02:39:32.918Z,99.90
2023-03-02T02:42:02.936Z,99.90
2023-03-02T02:44:30.822Z,99.90
2023-03-02T02:46:57.610Z,99.90
2023-03-02T02:49:39.435Z,99.90
2023-03-02T02:52:06.983Z,99.90
2023-03-02T02:54:36.256Z,99.90
2023-03-02T02:57:04.125Z,99.90
2023-03-02T02:59:36.749Z,99.90
2023-03-02T03:02:03.880Z,99.90
2023-03-02T03:04:32.087Z,99.90
2023-03-02T03:07:02.174Z,99.90
2023-03-02T03:09:29.596Z,99.90
2023-03-02T03:12:01.819Z,99.90
2023-03-02T03:14:34.457Z,99.90
2023-03-02T03:17:01.323Z,99.90
2023-03-02T03:19:30.884Z,99.90
2023-03-02T03:22:00.370Z,99.90
2023-03-02T03:24:29.085Z,99.90
2023-03-02T03:26:58.253Z,99.90
2023-03-02T03:29:27.755Z,99.90
2023-03-02T03:31:56.850Z,99.90
2023-03-02T03:34:25.112Z,99.90
2023-03-02T03:36:52.234Z,99.90
2023-03-02T03:39:19.581Z,99.90
2023-03-02T03:41:46.461Z,99.90
2023-03-02T03:44:13.660Z,99.90
2023-03-02T03:46:40.298Z,99.90
2023-03-02T03:49:07.317Z,99.90
2023-03-02T03:51:35.285Z,99.90
2023-03-02T03:54:08.231Z,99.90
2023-03-02T03:56:38.167Z,99.90
2023-03-02T03:59:07.139Z,99.90
2023-03-02T04:01:43.496Z,99.90
2023-03-02T04:04:13.527Z,99.90
2023-03-02T04:06:40.680Z,99.90
2023-03-02T04:09:08.033Z,99.90
2023-03-02T04:11:37.391Z,99.90
2023-03-02T04:14:04.895Z,99.90
2023-03-02T04:16:32.616Z,99.90
2023-03-02T04:18:59.882Z,99.90
2023-03-02T04:21:27.623Z,99.90
2023-03-02T04:23:54.825Z,99.90
2023-03-02T04:26:21.658Z,99.90
2023-03-02T04:28:50.917Z,99.90
2023-03-02T04:31:18.038Z,99.90
2023-03-02T04:33:44.759Z,99.90
2023-03-02T04:36:11.577Z,99.90
2023-03-02T04:38:38.565Z,99.90
2023-03-02T04:41:05.371Z,99.90
2023-03-02T04:43:32.326Z,99.90
2023-03-02T04:45:59.303Z,99.90
2023-03-02T04:48:26.082Z,99.90
2023-03-02T04:50:52.934Z,99.90
2023-03-02T04:53:19.563Z,99.90
2023-03-02T04:55:47.319Z,99.90
2023-03-02T04:58:14.353Z,99.90
2023-03-02T05:00:41.384Z,99.90
2023-03-02T05:03:08.134Z,99.90
2023-03-02T05:05:34.923Z,99.90
2023-03-02T05:08:01.569Z,99.90
2023-03-02T05:10:28.979Z,99.90
2023-03-02T05:12:58.703Z,99.90
2023-03-02T05:15:28.663Z,99.90
2023-03-02T05:17:55.606Z,99.90
2023-03-02T05:20:27.459Z,99.90
2023-03-02T05:22:55.760Z,99.90
2023-03-02T05:25:22.976Z,99.90
2023-03-02T05:27:49.746Z,99.90
2023-03-02T05:30:16.857Z,99.90
2023-03-02T05:32:43.656Z,99.90
2023-03-02T05:35:10.502Z,99.90
2023-03-02T05:37:39.762Z,99.90
2023-03-02T05:40:09.016Z,99.90
2023-03-02T05:42:36.436Z,99.90
2023-03-02T05:45:05.177Z,99.90
2023-03-02T05:47:31.829Z,99.90
2023-03-02T05:49:59.251Z,99.90
2023-03-02T05:52:26.424Z,99.90
2023-03-02T05:54:53.075Z,99.90
2023-03-02T05:57:20.072Z,99.90
2023-03-02T05:59:46.802Z,99.90
2023-03-02T06:02:13.974Z,99.90
2023-03-02T06:04:43.134Z,99.90
2023-03-02T06:07:11.350Z,99.90
2023-03-02T06:09:41.206Z,99.90
2023-03-02T06:12:09.514Z,99.90
2023-03-02T06:14:37.169Z,99.90
2023-03-02T06:17:03.916Z,99.90
2023-03-02T06:19:30.609Z,99.90
2023-03-02T06:21:57.752Z,99.90
2023-03-02T06:24:24.426Z,99.90
2023-03-02T06:26:53.597Z,99.90
2023-03-02T06:29:21.037Z,99.90
2023-03-02T06:31:47.894Z,99.90
2023-03-02T06:34:15.102Z,99.90
2023-03-02T06:36:41.888Z,99.90
2023-03-02T06:39:15.674Z,99.90
2023-03-02T06:41:46.544Z,99.90
2023-03-02T06:44:14.380Z,99.90
2023-03-02T06:46:42.093Z,99.90
2023-03-02T06:49:09.590Z,99.90
2023-03-02T06:51:36.735Z,99.90
2023-03-02T06:54:04.574Z,99.90
2023-03-02T06:56:31.642Z,99.90
2023-03-02T06:58:58.450Z,99.90
2023-03-02T07:01:25.287Z,99.90
2023-03-02T07:03:52.075Z,99.90
2023-03-02T07:06:18.810Z,99.90
2023-03-02T07:08:46.261Z,99.90
2023-03-02T07:11:13.179Z,99.90
2023-03-02T07:13:40.587Z,99.90
2023-03-02T07:16:12.373Z,99.90
2023-03-02T07:18:39.916Z,99.90
2023-03-02T07:21:07.188Z,99.90
2023-03-02T07:23:34.403Z,99.90
2023-03-02T07:26:01.179Z,99.90
2023-03-02T07:28:27.896Z,99.90
2023-03-02T07:30:54.562Z,99.90
2023-03-02T07:33:22.442Z,99.90
2023-03-02T07:35:49.157Z,99.90
2023-03-02T07:38:15.844Z,99.90
2023-03-02T07:40:43.549Z,99.90
2023-03-02T07:43:10.802Z,99.90
2023-03-02T07:45:38.377Z,99.90
2023-03-02T07:48:06.281Z,99.90
2023-03-02T07:50:33.364Z,99.90
2023-03-02T07:53:00.234Z,99.90
2023-03-02T07:55:27.507Z,99.90
2023-03-02T07:57:54.529Z,99.90
2023-03-02T08:00:21.922Z,99.90
2023-03-02T08:02:48.578Z,99.90
2023-03-02T08:05:15.793Z,99.90
2023-03-02T08:07:42.692Z,99.90
2023-03-02T08:10:10.581Z,99.90
2023-03-02T08:12:37.296Z,99.90
2023-03-02T08:15:05.085Z,99.90
2023-03-02T08:17:32.591Z,99.90
2023-03-02T08:19:59.328Z,99.90
2023-03-02T08:22:26.061Z,99.90
2023-03-02T08:24:52.718Z,99.90
2023-03-02T08:27:19.343Z,99.90
2023-03-02T08:29:46.167Z,99.90
2023-03-02T08:32:12.940Z,99.90
2023-03-02T08:34:40.119Z,99.90
2023-03-02T08:37:06.768Z,99.90
2023-03-02T08:39:33.572Z,99.90
2023-03-02T08:42:00.226Z,99.90
2023-03-02T08:44:27.013Z,99.90
2023-03-02T08:46:53.870Z,99.90
2023-03-02T08:49:20.519Z,99.90
2023-03-02T08:51:53.322Z,99.90
2023-03-02T08:54:20.920Z,99.90
2023-03-02T08:56:48.771Z,99.90
2023-03-02T08:59:17.380Z,99.90
2023-03-02T09:01:44.257Z,99.90
2023-03-02T09:04:11.465Z,99.90
2023-03-02T09:06:43.543Z,99.90
2023-03-02T09:09:12.382Z,99.90
2023-03-02T09:11:39.716Z,99.90
2023-03-02T09:14:06.745Z,99.90
2023-03-02T09:16:33.592Z,99.90
2023-03-02T09:19:00.659Z,99.90
2023-03-02T09:21:27.432Z,99.90
2023-03-02T09:23:57.932Z,99.90
2023-03-02T09:26:26.744Z,99.90
2023-03-02T09:28:53.637Z,99.90
2023-03-02T09:31:20.780Z,99.90
2023-03-02T09:33:47.670Z,99.90
2023-03-02T09:36:23.144Z,99.90
2023-03-02T09:38:50.220Z,99.90
2023-03-02T09:41:20.123Z,99.90
2023-03-02T09:44:01.842Z,99.90
2023-03-02T09:46:40.992Z,99.90
2023-03-02T09:49:25.914Z,99.90
2023-03-02T09:52:21.034Z,99.90
2023-03-02T09:54:48.324Z,99.90
2023-03-02T09:57:27.203Z,99.90
2023-03-02T10:00:19.164Z,99.90
2023-03-02T10:02:53.893Z,99.90
2023-03-02T10:05:31.729Z,99.90
2023-03-02T10:08:00.488Z,99.90
2023-03-02T10:10:35.951Z,99.90
2023-03-02T10:13:05.412Z,99.90
2023-03-02T10:15:47.663Z,99.90
2023-03-02T10:18:30.198Z,99.90
2023-03-02T10:21:11.973Z,99.90
2023-03-02T10:23:44.263Z,99.90
2023-03-02T10:26:37.494Z,99.90
2023-03-02T10:29:16.702Z,99.90
2023-03-02T10:31:43.459Z,99.90
2023-03-02T10:34:13.888Z,99.90
2023-03-02T10:36:44.552Z,99.90
2023-03-02T10:39:14.870Z,99.90
2023-03-02T10:42:02.314Z,99.90
2023-03-02T10:44:33.954Z,99.90
2023-03-02T10:47:00.768Z,99.90
2023-03-02T10:49:39.227Z,99.90
2023-03-02T10:52:15.225Z,99.90
2023-03-02T10:54:42.566Z,99.70
2023-03-02T10:57:29.777Z,99.40
2023-03-02T11:00:13.232Z,98.60
2023-03-02T11:02:49.771Z,98.10
2023-03-02T11:05:29.038Z,97.80
2023-03-02T11:08:06.152Z,98.00
2023-03-02T11:10:36.678Z,98.00
2023-03-02T11:13:18.257Z,99.80
2023-03-02T11:15:50.554Z,99.90
2023-03-02T11:18:26.240Z,98.00
2023-03-02T11:20:57.516Z,95.90
2023-03-02T11:23:36.380Z,95.50
2023-03-02T11:26:20.852Z,97.10
2023-03-02T11:29:41.924Z,96.00
2023-03-02T11:32:08.603Z,94.40
2023-03-02T11:34:50.872Z,94.00
2023-03-02T11:37:23.231Z,93.40
2023-03-02T11:39:55.403Z,93.20
2023-03-02T11:42:44.261Z,93.00
2023-03-02T11:45:13.828Z,92.80
2023-03-02T11:47:51.479Z,94.90
2023-03-02T11:50:21.306Z,95.20
2023-03-02T11:52:57.439Z,92.50
2023-03-02T11:55:30.150Z,92.60
2023-03-02T12:00:37.961Z,90.70
2023-03-02T12:03:17.013Z,90.50
2023-03-02T12:05:51.335Z,91.70
2023-03-02T12:08:20.976Z,88.80
2023-03-02T12:11:05.197Z,89.70
2023-03-02T12:13:40.634Z,87.10
2023-03-02T12:16:34.894Z,90.10
2023-03-02T12:19:41.791Z,88.60
2023-03-02T12:22:12.301Z,88.10
2023-03-02T12:24:44.851Z,89.10
2023-03-02T12:27:20.799Z,87.60
2023-03-02T12:29:51.542Z,86.80
2023-03-02T12:32:31.131Z,86.70
2023-03-02T12:35:06.709Z,85.40
2023-03-02T12:37:58.525Z,84.60
2023-03-02T12:40:53.039Z,84.80
2023-03-02T12:43:27.703Z,84.90
2023-03-02T12:46:13.697Z,83.80
2023-03-02T12:49:11.638Z,82.10
2023-03-02T12:51:47.609Z,85.40
2023-03-02T12:54:17.252Z,82.10
2023-03-02T12:56:44.935Z,83.30
2023-03-02T12:59:23.850Z,81.60
2023-03-02T13:01:50.983Z,81.30
2023-03-02T13:04:22.868Z,79.90
2023-03-02T13:06:49.827Z,81.00
2023-03-02T13:09:18.258Z,81.10
2023-03-02T13:11:45.006Z,80.20
2023-03-02T13:14:26.431Z,79.70
2023-03-02T13:16:59.130Z,77.70
2023-03-02T13:19:30.513Z,77.90
2023-03-02T13:21:58.234Z,77.50
2023-03-02T13:24:34.097Z,77.30
2023-03-02T13:27:06.542Z,77.70
2023-03-02T13:29:33.704Z,78.10
2023-03-02T13:32:22.231Z,77.50
2023-03-02T13:34:55.213Z,77.90
2023-03-02T13:37:39.305Z,77.50
2023-03-02T13:40:30.170Z,78.30
2023-03-02T13:42:57.529Z,75.80
2023-03-02T13:45:31.770Z,75.60
2023-03-02T13:48:00.202Z,76.00
2023-03-02T13:50:32.129Z,75.80
2023-03-02T13:53:02.509Z,75.70
2023-03-02T13:55:29.941Z,75.30
2023-03-02T13:57:57.206Z,75.30
2023-03-02T14:00:35.213Z,73.60
2023-03-02T14:03:02.698Z,75.00
2023-03-02T14:05:35.349Z,73.90
2023-03-02T14:08:02.979Z,74.00
2023-03-02T14:10:29.846Z,73.60
2023-03-02T14:13:02.392Z,73.30
2023-03-02T14:15:29.169Z,73.60
2023-03-02T14:17:56.238Z,72.90
2023-03-02T14:20:22.909Z,73.60
2023-03-02T14:22:50.682Z,73.30
2023-03-02T14:25:17.733Z,74.00
2023-03-02T14:27:47.083Z,74.50
2023-03-02T14:30:19.612Z,73.60
2023-03-02T14:32:46.873Z,74.40
2023-03-02T14:35:15.879Z,73.30
2023-03-02T14:37:49.840Z,73.10
2023-03-02T14:40:34.624Z,71.20
2023-03-02T14:43:01.270Z,71.00
2023-03-02T14:45:30.501Z,74.70
2023-03-02T14:47:58.113Z,72.50
2023-03-02T14:50:24.974Z,72.20
2023-03-02T14:52:55.273Z,73.10
2023-03-02T14:55:31.077Z,73.20
2023-03-02T14:58:00.745Z,73.30
2023-03-02T15:00:27.932Z,72.30
2023-03-02T15:02:55.372Z,72.30
2023-03-02T15:05:22.327Z,73.10
2023-03-02T15:07:49.090Z,72.70
2023-03-02T15:10:19.134Z,72.50
2023-03-02T15:12:46.234Z,72.20
2023-03-02T15:15:13.600Z,72.40
2023-03-02T15:17:40.745Z,73.50
2023-03-02T15:20:12.376Z,73.40
2023-03-02T15:22:39.069Z,73.30
2023-03-02T15:25:06.109Z,73.30
2023-03-02T15:27:32.818Z,73.30
2023-03-02T15:29:59.534Z,74.10
2023-03-02T15:32:26.589Z,73.90
2023-03-02T15:34:53.285Z,75.00
2023-03-02T15:37:20.276Z,75.70
2023-03-02T15:39:47.137Z,75.30
2023-03-02T15:42:14.145Z,75.70
2023-03-02T15:44:41.064Z,75.70
2023-03-02T15:47:08.071Z,76.00
2023-03-02T15:49:34.768Z,76.10
2023-03-02T15:52:01.448Z,76.00
2023-03-02T15:54:28.924Z,77.50
2023-03-02T15:56:55.890Z,77.40
2023-03-02T15:59:25.514Z,77.70
2023-03-02T16:01:52.650Z,77.10
2023-03-02T16:04:19.765Z,77.40
2023-03-02T16:06:46.535Z,76.90
2023-03-02T16:09:13.184Z,78.30
2023-03-02T16:11:39.930Z,77.90
2023-03-02T16:14:06.728Z,78.50
2023-03-02T16:16:33.559Z,78.50
2023-03-02T16:19:01.215Z,78.70
2023-03-02T16:21:28.692Z,79.00
2023-03-02T16:24:03.131Z,79.30
2023-03-02T16:26:31.918Z,79.90
2023-03-02T16:28:59.815Z,80.40
2023-03-02T16:31:28.139Z,80.90
2023-03-02T16:33:57.459Z,81.40
2023-03-02T16:36:24.458Z,81.70
2023-03-02T16:38:51.282Z,82.10
2023-03-02T16:41:21.842Z,82.40
2023-03-02T16:43:59.084Z,82.80
2023-03-02T16:46:28.614Z,83.10
2023-03-02T16:48:56.766Z,82.70
2023-03-02T16:51:23.486Z,83.00
2023-03-02T16:53:50.523Z,84.00
2023-03-02T16:56:17.257Z,87.20
2023-03-02T16:58:44.357Z,89.50
2023-03-02T17:01:16.613Z,90.30
2023-03-02T17:03:43.724Z,90.50
2023-03-02T17:06:13.445Z,91.30
2023-03-02T17:08:40.224Z,92.00
2023-03-02T17:11:07.292Z,92.60
2023-03-02T17:13:34.018Z,93.20
2023-03-02T17:16:01.203Z,94.50
2023-03-02T17:18:29.039Z,94.20
2023-03-02T17:20:57.601Z,94.70
2023-03-02T17:23:24.581Z,95.00
2023-03-02T17:25:51.467Z,94.50
2023-03-02T17:28:18.594Z,94.30
2023-03-02T17:30:45.933Z,94.40
2023-03-02T17:33:12.745Z,94.10
2023-03-02T17:35:39.430Z,92.80
2023-03-02T17:38:06.175Z,92.50
2023-03-02T17:40:33.166Z,93.30
2023-03-02T17:42:59.853Z,94.10
2023-03-02T17:45:29.139Z,93.80
2023-03-02T17:47:57.644Z,94.00
2023-03-02T17:50:25.327Z,94.50
2023-03-02T17:52:52.031Z,95.00
2023-03-02T17:55:18.783Z,95.50
2023-03-02T17:57:45.410Z,96.10
2023-03-02T18:00:16.240Z,96.30
2023-03-02T18:02:42.972Z,96.90
2023-03-02T18:05:11.138Z,97.50
2023-03-02T18:07:38.005Z,97.80
2023-03-02T18:10:06.633Z,98.20
2023-03-02T18:12:33.825Z,98.80
2023-03-02T18:15:00.616Z,99.80
2023-03-02T18:17:27.451Z,99.90
2023-03-02T18:19:54.250Z,99.90
2023-03-02T18:22:22.029Z,99.90
2023-03-02T18:24:50.475Z,99.90
2023-03-02T18:27:17.516Z,99.90
2023-03-02T18:29:44.322Z,99.90
2023-03-02T18:32:11.570Z,99.90
2023-03-02T18:34:38.420Z,99.90
2023-03-02T18:37:05.186Z,99.90
2023-03-02T18:39:32.034Z,99.90
2023-03-02T18:41:58.939Z,99.90
2023-03-02T18:44:27.993Z,99.90
2023-03-02T18:46:55.573Z,99.90
2023-03-02T18:49:22.483Z,99.90
2023-03-02T18:51:49.469Z,99.90
2023-03-02T18:54:16.203Z,99.90
2023-03-02T18:56:42.906Z,99.90
2023-03-02T18:59:09.795Z,99.90
2023-03-02T19:01:37.003Z,99.90
2023-03-02T19:04:04.839Z,99.90
2023-03-02T19:06:32.392Z,99.90
2023-03-02T19:08:59.137Z,99.90
2023-03-02T19:11:26.052Z,99.90
2023-03-02T19:13:52.798Z,99.90
2023-03-02T19:16:19.557Z,99.90
2023-03-02T19:18:46.520Z,99.90
2023-03-02T19:21:13.201Z,99.90
2023-03-02T19:23:40.922Z,99.90
2023-03-02T19:26:08.149Z,99.90
2023-03-02T19:28:36.356Z,99.90
2023-03-02T19:31:09.003Z,99.90
2023-03-02T19:33:36.153Z,99.90
2023-03-02T19:36:03.711Z,99.90
2023-03-02T19:38:30.677Z,99.90
2023-03-02T19:40:58.977Z,99.90
2023-03-02T19:43:26.720Z,99.90
2023-03-02T19:45:53.642Z,99.90
2023-03-02T19:48:20.721Z,99.90
2023-03-02T19:50:48.045Z,99.90
2023-03-02T19:53:17.191Z,99.90
2023-03-02T19:55:44.693Z,99.90
2023-03-02T19:58:17.313Z,99.90
2023-03-02T20:00:45.265Z,99.90
2023-03-02T20:03:13.239Z,99.90
2023-03-02T20:05:39.946Z,99.90
2023-03-02T20:08:07.973Z,99.90
2023-03-02T20:10:42.125Z,99.90
2023-03-02T20:13:09.558Z,99.90
2023-03-02T20:15:39.128Z,99.90
2023-03-02T20:18:11.456Z,99.90
2023-03-02T20:20:38.397Z,99.90
2023-03-02T20:23:05.051Z,99.90
2023-03-02T20:25:31.798Z,99.90
2023-03-02T20:27:58.792Z,99.90
2023-03-02T20:30:51.687Z,99.90
2023-03-02T20:33:20.700Z,99.90
2023-03-02T20:35:47.983Z,99.90
2023-03-02T20:38:19.893Z,99.90
2023-03-02T20:40:46.858Z,99.90
2023-03-02T20:43:14.207Z,99.90
2023-03-02T20:45:41.158Z,99.90
2023-03-02T20:48:08.085Z,99.90
2023-03-02T20:50:36.195Z,99.90
2023-03-02T20:53:05.300Z,99.90
2023-03-02T20:55:32.804Z,99.90
2023-03-02T20:58:01.117Z,99.90
2023-03-02T21:00:30.175Z,99.90
2023-03-02T21:02:57.801Z,99.90
2023-03-02T21:05:26.340Z,99.90
2023-03-02T21:07:53.202Z,99.90
2023-03-02T21:10:25.900Z,99.90
2023-03-02T21:12:53.015Z,99.90
2023-03-02T21:15:23.788Z,99.90
2023-03-02T21:17:51.320Z,99.90
2023-03-02T21:20:18.504Z,99.90
2023-03-02T21:22:46.105Z,99.90
2023-03-02T21:25:12.792Z,99.90
2023-03-02T21:27:40.148Z,99.90
2023-03-02T21:30:08.552Z,99.90
2023-03-02T21:32:35.297Z,99.90
2023-03-02T21:35:02.486Z,99.90
2023-03-02T21:37:29.369Z,99.90
2023-03-02T21:39:56.113Z,99.90
2023-03-02T21:42:22.847Z,99.90
2023-03-02T21:44:49.517Z,99.90
2023-03-02T21:47:16.149Z,99.90
2023-03-02T21:49:43.196Z,99.90
2023-03-02T21:52:09.910Z,99.90
2023-03-02T21:54:36.634Z,99.90
2023-03-02T21:57:03.439Z,99.90
2023-03-02T21:59:30.761Z,99.90
2023-03-02T22:01:57.510Z,99.90
2023-03-02T22:04:24.274Z,99.90
2023-03-02T22:06:51.052Z,99.90
2023-03-02T22:09:17.941Z,99.90
2023-03-02T22:11:45.177Z,99.90
2023-03-02T22:14:17.616Z,99.90
2023-03-02T22:16:47.989Z,99.90
2023-03-02T22:19:23.397Z,99.90
2023-03-02T22:21:51.316Z,99.90
2023-03-02T22:24:20.120Z,99.90
2023-03-02T22:27:07.050Z,99.90
2023-03-02T22:29:42.277Z,99.90
2023-03-02T22:32:23.265Z,99.90
2023-03-02T22:34:55.396Z,99.90
2023-03-02T22:37:24.739Z,99.90
2023-03-02T22:39:55.235Z,99.90
2023-03-02T22:42:29.278Z,99.90
2023-03-02T22:45:09.970Z,99.90
2023-03-02T22:47:36.658Z,99.90
2023-03-02T22:50:25.419Z,99.90
2023-03-02T22:52:53.080Z,99.90
2023-03-02T22:55:38.469Z,99.90
2023-03-02T22:58:43.044Z,99.90
2023-03-02T23:01:25.009Z,99.90
2023-03-02T23:03:54.895Z,99.90
2023-03-02T23:06:29.776Z,99.90
2023-03-02T23:09:01.940Z,99.90
2023-03-02T23:11:31.571Z,99.90
2023-03-02T23:14:00.941Z,99.90
2023-03-02T23:16:32.911Z,99.90
2023-03-02T23:18:59.696Z,99.90
2023-03-02T23:21:31.241Z,99.90
2023-03-02T23:23:57.901Z,99.90
2023-03-02T23:26:24.634Z,99.90
2023-03-02T23:28:51.293Z,99.90
2023-03-02T23:31:21.272Z,99.90
2023-03-02T23:33:48.052Z,99.90
2023-03-02T23:36:15.800Z,99.90
2023-03-02T23:38:42.724Z,99.90
2023-03-02T23:41:09.858Z,99.90
2023-03-02T23:43:36.649Z,99.90
2023-03-02T23:46:03.430Z,99.90
2023-03-02T23:48:30.183Z,99.90
2023-03-02T23:50:57.165Z,99.90
2023-03-02T23:53:24.055Z,99.90
2023-03-02T23:55:53.028Z,99.90
2023-03-02T23:58:20.129Z,99.90
